Bryson City, NC (28713)

05:57 EDT le 25 juillet 2016 (GMT -0400)
Buckner Branch | | Change Station

Alt. 1900 ft 35.42 °N, 83.48 °W | Updated 14 minutes ago

Overcast
Couvert
67.8 ° F
Paraît 67.8 ° F
N
0.0
Vent Variable Vent de SO

Aujourd'hui
Haut(e) -- | Bas -- ° F
--% Risque de précip.
Hier
Haut(e) -- | Bas -- ° F
Precip. -- pouce
Pression 30.15 pouce
Visibilité 0.8 Miles terrestres
Nuages Couvert 300 ft
Point de rosée 68 ° F
Humidité 99%
Précipitations 0.00 pouce
Profondeur de la couche neigeuse Non disponible.
6:37 AM 8:42 PM
Lune gibbeuse décroissante, 67% visible
METAR K1A5 250940Z AUTO 00000KT 3/4SM BR OVC003 21/20 A3015 RMK AO2 T02060200
Pression 30.15 pouce
Visibilité 0.8 Miles terrestres
Nuages Couvert 300 ft
Point de rosée 68 ° F
Humidité 99%
Précipitations 0.00 pouce
Profondeur de la couche neigeuse Non disponible.
6:37 AM 8:42 PM
Lune gibbeuse décroissante, 67% visible
METAR K1A5 250940Z AUTO 00000KT 3/4SM BR OVC003 21/20 A3015 RMK AO2 T02060200

10-Day Weather Forecast

Almanac

Astronomie

Jul. 25, 2016 Lever Coucher
Temps réel
Crépuscule civil
Crépuscule nautique
Crépuscule astronomique
Lune
Durée de lumière visible
Longueur du jour
Tomorrow will be .
, % of the Moon is Illuminated

Extrêmes aujourd'hui

State Highs State Lows

Community

WunderPhotos

Upload Photos

1,927,289 Photos téléchargées !

WunderBlog® & News

Nearby

Qualité de l'air

  Qualité de l'air Indice de la qualité de l'air Polluant
Not available.

Épaisseur de neige

Station Depth Altitude

Activité sismique

Ville Distance Mag. Time & Date
Minimum magnitude displayed is 2.5.

Températures des eaux côtières

Lieu Température

Stations

Stations météo à proximité

Emplacement de la station Température Refroidissement éolien Point de rosée Humidité Vent Precip. Alt. Mise à jour Type
                   

Watches & Warnings

There are currently no watches in effect.